Connoquenessing, PA

12:22 AM EST on February 27, 2015 (GMT -0500)
APRSWXNET Renfrew PA US | Change Station
CLOSE
Current Station
Personal Weather Station
Location: Connoquenessing, PA
Elevation: 1206 ft
Nearby Weather Stations

Elev 1206 ft 40.81 °N, 80.00 °W | Updated 34 minutes ago

Snow
Snow
7 °F
Feels Like 7 °F
N
2
Wind Variable Wind from NNW
Gusts 6.0 mph

Today
High -- | Low -- °F
--% Chance of Precip.
Yesterday
High -- | Low -- °F
Precip. -- in
6:57 AM 6:08 PM
Waxing Gibbous, 65% visible
Pressure 30.22 in
Visibility 3.0 miles
Clouds Few 2200 ft
Scattered Clouds 2700 ft
Overcast 3200 ft
Windchill 7 °F
Dew Point -2 °F
Humidity 65%
Rainfall 0.00 in
Snow Depth Not available.
UV 0 out of 12
Pollen .50 out of 12
Air Quality Not available.
Flu Activity Not available.
METAR KBTP 270515Z AUTO 31004KT 3SM FEW022 SCT027 OVC032 M13/M16 A3022 RMK AO1

More Conditions Fewer Conditions

Pressure 30.22 in
Visibility 3.0 miles
Clouds Few 2200 ft
Scattered Clouds 2700 ft
Overcast 3200 ft
Windchill 7 °F
Dew Point -2 °F
Humidity 65%
Rainfall 0.00 in
Snow Depth Not available.
UV 0 out of 12
Pollen .50 out of 12
Air Quality Not available.
Flu Activity Not available.
METAR KBTP 270515Z AUTO 31004KT 3SM FEW022 SCT027 OVC032 M13/M16 A3022 RMK AO1

More Conditions Fewer Conditions

10-Day Weather Forecast

Almanac

Astronomy

Feb. 27, 2015 Rise Set
Actual Time
Civil Twilight
Nautical Twilight
Astronomical Twilight
Moon
Length of Visible Light
Length of Day
Tomorrow will be .
, % of the Moon is Illuminated

Today's Extremes

State Highs State Lows

Community

WunderPhotos

Upload Photos

1,800,638 photos uploaded!

WunderBlogs® & News

Nearby

Air Quality

  Air Quality AQ Index Pollutant
Not available.

Snow Depth

Station Depth Elevation

Earthquake Activity

City Distance Mag. Time & Date
Minimum magnitude displayed is 2.5.

Coastal Water Temperatures

Place Temperature

Nearby Weather Stations